sensor_id;sensor_type;location;lat;lon;timestamp;temperature;humidity
32728;DHT22;55292;51.844;19.246;2024-01-30T00:00:24;0.80;99.90
32728;DHT22;55292;51.844;19.246;2024-01-30T00:05:47;0.70;99.90
32728;DHT22;55292;51.844;19.246;2024-01-30T00:10:50;0.70;99.90
32728;DHT22;55292;51.844;19.246;2024-01-30T00:15:53;0.50;99.90
32728;DHT22;55292;51.844;19.246;2024-01-30T00:20:56;0.60;99.90
32728;DHT22;55292;51.844;19.246;2024-01-30T00:25:59;0.50;99.90
32728;DHT22;55292;51.844;19.246;2024-01-30T00:31:02;0.40;99.90
32728;DHT22;55292;51.844;19.246;2024-01-30T00:36:06;0.50;99.90
32728;DHT22;55292;51.844;19.246;2024-01-30T00:41:11;0.70;99.90
32728;DHT22;55292;51.844;19.246;2024-01-30T00:46:14;0.70;99.90
32728;DHT22;55292;51.844;19.246;2024-01-30T00:51:17;0.60;99.90
32728;DHT22;55292;51.844;19.246;2024-01-30T00:56:20;0.70;99.90
32728;DHT22;55292;51.844;19.246;2024-01-30T01:01:22;0.70;99.90
32728;DHT22;55292;51.844;19.246;2024-01-30T01:06:25;0.50;99.90
32728;DHT22;55292;51.844;19.246;2024-01-30T01:11:28;0.50;99.90
32728;DHT22;55292;51.844;19.246;2024-01-30T01:16:31;0.50;99.90
32728;DHT22;55292;51.844;19.246;2024-01-30T01:21:34;0.40;99.90
32728;DHT22;55292;51.844;19.246;2024-01-30T01:26:36;0.40;99.90
32728;DHT22;55292;51.844;19.246;2024-01-30T01:31:39;0.20;99.90
32728;DHT22;55292;51.844;19.246;2024-01-30T01:36:46;0.20;99.90
32728;DHT22;55292;51.844;19.246;2024-01-30T01:46:52;0.00;99.90
32728;DHT22;55292;51.844;19.246;2024-01-30T01:51:56;-0.10;99.90
32728;DHT22;55292;51.844;19.246;2024-01-30T01:57:00;0.20;99.90
32728;DHT22;55292;51.844;19.246;2024-01-30T02:02:03;0.10;99.90
32728;DHT22;55292;51.844;19.246;2024-01-30T02:07:07;-0.10;99.90
32728;DHT22;55292;51.844;19.246;2024-01-30T02:12:10;-0.20;99.90
32728;DHT22;55292;51.844;19.246;2024-01-30T02:17:13;-0.30;99.90
32728;DHT22;55292;51.844;19.246;2024-01-30T02:32:23;-0.30;99.90
32728;DHT22;55292;51.844;19.246;2024-01-30T02:37:39;-0.30;99.90
32728;DHT22;55292;51.844;19.246;2024-01-30T02:42:58;-0.50;99.90
32728;DHT22;55292;51.844;19.246;2024-01-30T02:53:04;-0.50;99.90
32728;DHT22;55292;51.844;19.246;2024-01-30T02:58:07;-0.50;99.90
32728;DHT22;55292;51.844;19.246;2024-01-30T03:03:10;-0.40;99.90
32728;DHT22;55292;51.844;19.246;2024-01-30T03:08:14;-0.40;99.90
32728;DHT22;55292;51.844;19.246;2024-01-30T03:13:17;-0.40;99.90
32728;DHT22;55292;51.844;19.246;2024-01-30T03:18:20;-0.30;99.90
32728;DHT22;55292;51.844;19.246;2024-01-30T03:28:26;-0.30;99.90
32728;DHT22;55292;51.844;19.246;2024-01-30T03:33:29;-0.30;99.90
32728;DHT22;55292;51.844;19.246;2024-01-30T03:43:35;-0.40;99.90
32728;DHT22;55292;51.844;19.246;2024-01-30T03:48:38;-0.40;99.90
32728;DHT22;55292;51.844;19.246;2024-01-30T03:53:45;-0.20;99.90
32728;DHT22;55292;51.844;19.246;2024-01-30T03:58:50;-0.30;99.90
32728;DHT22;55292;51.844;19.246;2024-01-30T04:03:53;-0.20;99.90
32728;DHT22;55292;51.844;19.246;2024-01-30T04:08:56;-0.20;99.90
32728;DHT22;55292;51.844;19.246;2024-01-30T04:19:01;-0.40;99.90
32728;DHT22;55292;51.844;19.246;2024-01-30T04:24:05;-0.30;99.90
32728;DHT22;55292;51.844;19.246;2024-01-30T04:34:10;-0.30;99.90
32728;DHT22;55292;51.844;19.246;2024-01-30T04:49:21;-0.10;99.90
32728;DHT22;55292;51.844;19.246;2024-01-30T04:54:24;-0.10;99.90
32728;DHT22;55292;51.844;19.246;2024-01-30T04:59:27;-0.10;99.90
32728;DHT22;55292;51.844;19.246;2024-01-30T05:04:30;0.00;99.90
32728;DHT22;55292;51.844;19.246;2024-01-30T05:09:32;-0.20;99.90
32728;DHT22;55292;51.844;19.246;2024-01-30T05:19:38;-0.30;99.90
32728;DHT22;55292;51.844;19.246;2024-01-30T05:24:42;-0.20;99.90
32728;DHT22;55292;51.844;19.246;2024-01-30T05:34:48;-0.40;99.90
32728;DHT22;55292;51.844;19.246;2024-01-30T05:39:53;-0.40;99.90
32728;DHT22;55292;51.844;19.246;2024-01-30T05:44:55;-0.30;99.90
32728;DHT22;55292;51.844;19.246;2024-01-30T05:49:58;-0.30;99.90
32728;DHT22;55292;51.844;19.246;2024-01-30T05:55:02;-0.30;99.90
32728;DHT22;55292;51.844;19.246;2024-01-30T06:00:06;-0.30;99.90
32728;DHT22;55292;51.844;19.246;2024-01-30T06:10:12;-0.20;99.90
32728;DHT22;55292;51.844;19.246;2024-01-30T06:15:15;-0.10;99.90
32728;DHT22;55292;51.844;19.246;2024-01-30T06:20:18;-0.20;99.90
32728;DHT22;55292;51.844;19.246;2024-01-30T06:25:21;0.10;99.90
32728;DHT22;55292;51.844;19.246;2024-01-30T06:35:28;0.10;99.90
32728;DHT22;55292;51.844;19.246;2024-01-30T06:40:31;0.00;99.90
32728;DHT22;55292;51.844;19.246;2024-01-30T06:45:36;0.00;99.90
32728;DHT22;55292;51.844;19.246;2024-01-30T06:50:43;0.20;99.90
32728;DHT22;55292;51.844;19.246;2024-01-30T06:55:45;0.40;99.90
32728;DHT22;55292;51.844;19.246;2024-01-30T07:00:49;0.70;99.90
32728;DHT22;55292;51.844;19.246;2024-01-30T07:05:52;1.10;99.90
32728;DHT22;55292;51.844;19.246;2024-01-30T07:10:58;1.10;99.90
32728;DHT22;55292;51.844;19.246;2024-01-30T07:21:06;1.50;99.90
32728;DHT22;55292;51.844;19.246;2024-01-30T07:26:09;1.50;99.90
32728;DHT22;55292;51.844;19.246;2024-01-30T07:31:11;1.60;99.90
32728;DHT22;55292;51.844;19.246;2024-01-30T07:36:14;1.80;99.90
32728;DHT22;55292;51.844;19.246;2024-01-30T07:41:17;1.90;99.90
32728;DHT22;55292;51.844;19.246;2024-01-30T07:46:20;2.00;99.90
32728;DHT22;55292;51.844;19.246;2024-01-30T07:51:23;2.10;99.90
32728;DHT22;55292;51.844;19.246;2024-01-30T07:56:26;2.30;99.90
32728;DHT22;55292;51.844;19.246;2024-01-30T08:01:29;2.30;99.90
32728;DHT22;55292;51.844;19.246;2024-01-30T08:06:32;2.30;99.90
32728;DHT22;55292;51.844;19.246;2024-01-30T08:11:35;2.40;99.90
32728;DHT22;55292;51.844;19.246;2024-01-30T08:16:38;2.50;99.90
32728;DHT22;55292;51.844;19.246;2024-01-30T08:21:41;2.60;99.90
32728;DHT22;55292;51.844;19.246;2024-01-30T08:26:44;2.70;99.90
32728;DHT22;55292;51.844;19.246;2024-01-30T08:31:47;2.70;99.90
32728;DHT22;55292;51.844;19.246;2024-01-30T08:36:50;2.90;99.90
32728;DHT22;55292;51.844;19.246;2024-01-30T08:41:52;3.10;99.90
32728;DHT22;55292;51.844;19.246;2024-01-30T08:46:55;3.30;99.90
32728;DHT22;55292;51.844;19.246;2024-01-30T08:51:59;3.30;99.90
32728;DHT22;55292;51.844;19.246;2024-01-30T08:57:02;3.50;99.90
32728;DHT22;55292;51.844;19.246;2024-01-30T09:02:06;3.60;99.90
32728;DHT22;55292;51.844;19.246;2024-01-30T09:07:14;3.70;99.90
32728;DHT22;55292;51.844;19.246;2024-01-30T09:12:17;3.90;99.90
32728;DHT22;55292;51.844;19.246;2024-01-30T09:17:20;4.00;99.90
32728;DHT22;55292;51.844;19.246;2024-01-30T09:22:22;4.00;99.90
32728;DHT22;55292;51.844;19.246;2024-01-30T09:27:25;4.10;99.90
32728;DHT22;55292;51.844;19.246;2024-01-30T09:32:28;4.30;99.90
32728;DHT22;55292;51.844;19.246;2024-01-30T09:37:31;4.40;99.90
32728;DHT22;55292;51.844;19.246;2024-01-30T09:42:35;4.50;99.90
32728;DHT22;55292;51.844;19.246;2024-01-30T09:47:44;4.70;99.90
32728;DHT22;55292;51.844;19.246;2024-01-30T09:52:47;4.70;99.90
32728;DHT22;55292;51.844;19.246;2024-01-30T09:57:50;4.80;99.90
32728;DHT22;55292;51.844;19.246;2024-01-30T10:02:53;5.00;99.90
32728;DHT22;55292;51.844;19.246;2024-01-30T10:07:57;5.10;99.90
32728;DHT22;55292;51.844;19.246;2024-01-30T10:13:01;5.10;99.90
32728;DHT22;55292;51.844;19.246;2024-01-30T10:18:08;5.20;99.90
32728;DHT22;55292;51.844;19.246;2024-01-30T10:23:12;5.40;99.90
32728;DHT22;55292;51.844;19.246;2024-01-30T10:28:15;5.50;99.90
32728;DHT22;55292;51.844;19.246;2024-01-30T10:33:18;5.40;99.90
32728;DHT22;55292;51.844;19.246;2024-01-30T10:38:22;5.50;99.90
32728;DHT22;55292;51.844;19.246;2024-01-30T10:43:36;5.70;99.90
32728;DHT22;55292;51.844;19.246;2024-01-30T10:48:43;5.90;99.90
32728;DHT22;55292;51.844;19.246;2024-01-30T10:53:50;6.10;99.90
32728;DHT22;55292;51.844;19.246;2024-01-30T10:58:54;6.00;99.90
32728;DHT22;55292;51.844;19.246;2024-01-30T11:03:58;6.10;99.90
32728;DHT22;55292;51.844;19.246;2024-01-30T11:09:05;6.20;99.90
32728;DHT22;55292;51.844;19.246;2024-01-30T11:14:13;6.30;99.90
32728;DHT22;55292;51.844;19.246;2024-01-30T11:19:25;6.40;99.90
32728;DHT22;55292;51.844;19.246;2024-01-30T11:24:28;6.40;99.90
32728;DHT22;55292;51.844;19.246;2024-01-30T11:29:35;6.50;99.90
32728;DHT22;55292;51.844;19.246;2024-01-30T11:34:41;6.50;99.90
32728;DHT22;55292;51.844;19.246;2024-01-30T11:39:44;6.60;99.90
32728;DHT22;55292;51.844;19.246;2024-01-30T11:44:47;6.60;99.90
32728;DHT22;55292;51.844;19.246;2024-01-30T11:49:51;6.70;99.90
32728;DHT22;55292;51.844;19.246;2024-01-30T11:54:54;6.70;99.90
32728;DHT22;55292;51.844;19.246;2024-01-30T11:59:58;6.70;99.90
32728;DHT22;55292;51.844;19.246;2024-01-30T12:05:07;6.70;99.90
32728;DHT22;55292;51.844;19.246;2024-01-30T12:10:10;6.80;99.90
32728;DHT22;55292;51.844;19.246;2024-01-30T12:15:14;6.80;99.90
32728;DHT22;55292;51.844;19.246;2024-01-30T12:20:20;6.90;99.90
32728;DHT22;55292;51.844;19.246;2024-01-30T12:25:25;7.00;99.90
32728;DHT22;55292;51.844;19.246;2024-01-30T12:30:38;7.10;99.90
32728;DHT22;55292;51.844;19.246;2024-01-30T12:36:01;7.20;99.90
32728;DHT22;55292;51.844;19.246;2024-01-30T12:41:58;7.20;99.90
32728;DHT22;55292;51.844;19.246;2024-01-30T12:48:11;7.20;99.90
32728;DHT22;55292;51.844;19.246;2024-01-30T12:54:38;7.20;99.90
32728;DHT22;55292;51.844;19.246;2024-01-30T13:01:33;7.40;99.90
32728;DHT22;55292;51.844;19.246;2024-01-30T13:06:44;7.50;99.90
32728;DHT22;55292;51.844;19.246;2024-01-30T13:12:42;7.40;99.90
32728;DHT22;55292;51.844;19.246;2024-01-30T13:18:06;7.40;99.90
32728;DHT22;55292;51.844;19.246;2024-01-30T13:23:36;7.40;99.90
32728;DHT22;55292;51.844;19.246;2024-01-30T13:29:04;7.30;99.90
32728;DHT22;55292;51.844;19.246;2024-01-30T13:34:43;7.20;99.90
32728;DHT22;55292;51.844;19.246;2024-01-30T13:40:10;7.20;99.90
32728;DHT22;55292;51.844;19.246;2024-01-30T13:45:44;7.20;99.90
32728;DHT22;55292;51.844;19.246;2024-01-30T13:51:15;8.70;99.90
32728;DHT22;55292;51.844;19.246;2024-01-30T13:56:36;7.10;99.90
32728;DHT22;55292;51.844;19.246;2024-01-30T14:02:00;7.10;99.90
32728;DHT22;55292;51.844;19.246;2024-01-30T14:07:08;7.00;99.90
32728;DHT22;55292;51.844;19.246;2024-01-30T14:12:46;6.90;99.90
32728;DHT22;55292;51.844;19.246;2024-01-30T14:18:15;6.70;99.90
32728;DHT22;55292;51.844;19.246;2024-01-30T14:23:34;6.50;99.90
32728;DHT22;55292;51.844;19.246;2024-01-30T14:29:06;6.50;99.90
32728;DHT22;55292;51.844;19.246;2024-01-30T14:34:31;6.50;99.90
32728;DHT22;55292;51.844;19.246;2024-01-30T14:39:51;6.30;99.90
32728;DHT22;55292;51.844;19.246;2024-01-30T14:45:10;6.20;99.90
32728;DHT22;55292;51.844;19.246;2024-01-30T14:50:50;6.00;99.90
32728;DHT22;55292;51.844;19.246;2024-01-30T14:56:21;5.60;99.90
32728;DHT22;55292;51.844;19.246;2024-01-30T15:01:39;5.30;99.90
32728;DHT22;55292;51.844;19.246;2024-01-30T15:07:06;5.10;99.90
32728;DHT22;55292;51.844;19.246;2024-01-30T15:13:18;4.70;99.90
32728;DHT22;55292;51.844;19.246;2024-01-30T15:18:44;4.40;99.90
32728;DHT22;55292;51.844;19.246;2024-01-30T15:24:15;4.10;99.90
32728;DHT22;55292;51.844;19.246;2024-01-30T15:29:28;3.80;99.90
32728;DHT22;55292;51.844;19.246;2024-01-30T15:35:00;3.30;99.90
32728;DHT22;55292;51.844;19.246;2024-01-30T15:40:16;3.30;99.90
32728;DHT22;55292;51.844;19.246;2024-01-30T15:45:40;3.20;99.90
32728;DHT22;55292;51.844;19.246;2024-01-30T15:51:01;3.10;99.90
32728;DHT22;55292;51.844;19.246;2024-01-30T15:56:43;3.10;99.90
32728;DHT22;55292;51.844;19.246;2024-01-30T16:02:14;3.10;99.90
32728;DHT22;55292;51.844;19.246;2024-01-30T16:07:49;3.10;99.90
32728;DHT22;55292;51.844;19.246;2024-01-30T16:13:46;3.00;99.90
32728;DHT22;55292;51.844;19.246;2024-01-30T16:19:09;3.00;99.90
32728;DHT22;55292;51.844;19.246;2024-01-30T16:24:29;3.00;99.90
32728;DHT22;55292;51.844;19.246;2024-01-30T16:29:52;2.90;99.90
32728;DHT22;55292;51.844;19.246;2024-01-30T16:36:04;3.00;99.90
32728;DHT22;55292;51.844;19.246;2024-01-30T16:41:38;3.10;99.90
32728;DHT22;55292;51.844;19.246;2024-01-30T16:47:27;2.90;99.90
32728;DHT22;55292;51.844;19.246;2024-01-30T16:52:54;2.80;99.90
32728;DHT22;55292;51.844;19.246;2024-01-30T16:58:08;2.90;99.90
32728;DHT22;55292;51.844;19.246;2024-01-30T17:03:43;2.90;99.90
32728;DHT22;55292;51.844;19.246;2024-01-30T17:09:06;2.90;99.90
32728;DHT22;55292;51.844;19.246;2024-01-30T17:14:32;3.10;99.90
32728;DHT22;55292;51.844;19.246;2024-01-30T17:20:00;3.30;99.90
32728;DHT22;55292;51.844;19.246;2024-01-30T17:25:26;3.30;99.90
32728;DHT22;55292;51.844;19.246;2024-01-30T17:30:55;3.20;99.90
32728;DHT22;55292;51.844;19.246;2024-01-30T17:36:32;3.30;99.90
32728;DHT22;55292;51.844;19.246;2024-01-30T17:41:48;3.60;99.90
32728;DHT22;55292;51.844;19.246;2024-01-30T17:47:54;3.60;99.90
32728;DHT22;55292;51.844;19.246;2024-01-30T17:54:05;3.50;99.90
32728;DHT22;55292;51.844;19.246;2024-01-30T17:59:36;3.50;99.90
32728;DHT22;55292;51.844;19.246;2024-01-30T18:05:16;3.40;99.90
32728;DHT22;55292;51.844;19.246;2024-01-30T18:10:42;3.10;99.90
32728;DHT22;55292;51.844;19.246;2024-01-30T18:16:13;3.00;99.90
32728;DHT22;55292;51.844;19.246;2024-01-30T18:21:47;3.10;99.90
32728;DHT22;55292;51.844;19.246;2024-01-30T18:27:15;3.00;99.90
32728;DHT22;55292;51.844;19.246;2024-01-30T18:32:35;3.10;99.90
32728;DHT22;55292;51.844;19.246;2024-01-30T18:38:12;2.20;99.90
32728;DHT22;55292;51.844;19.246;2024-01-30T18:44:00;3.10;99.90
32728;DHT22;55292;51.844;19.246;2024-01-30T18:49:34;3.00;99.90
32728;DHT22;55292;51.844;19.246;2024-01-30T18:54:48;3.00;99.90
32728;DHT22;55292;51.844;19.246;2024-01-30T19:00:35;3.00;99.90
32728;DHT22;55292;51.844;19.246;2024-01-30T19:05:58;3.20;99.90
32728;DHT22;55292;51.844;19.246;2024-01-30T19:11:22;3.00;99.90
32728;DHT22;55292;51.844;19.246;2024-01-30T19:17:01;3.00;99.90
32728;DHT22;55292;51.844;19.246;2024-01-30T19:22:28;3.00;99.90
32728;DHT22;55292;51.844;19.246;2024-01-30T19:27:38;3.00;99.90
32728;DHT22;55292;51.844;19.246;2024-01-30T19:32:55;2.90;99.90
32728;DHT22;55292;51.844;19.246;2024-01-30T19:38:24;5.10;99.90
32728;DHT22;55292;51.844;19.246;2024-01-30T19:43:59;2.80;99.90
32728;DHT22;55292;51.844;19.246;2024-01-30T19:49:43;2.80;99.90
32728;DHT22;55292;51.844;19.246;2024-01-30T19:55:22;2.80;99.90
32728;DHT22;55292;51.844;19.246;2024-01-30T20:01:00;2.70;99.90
32728;DHT22;55292;51.844;19.246;2024-01-30T20:06:27;2.60;99.90
32728;DHT22;55292;51.844;19.246;2024-01-30T20:11:52;2.70;99.90
32728;DHT22;55292;51.844;19.246;2024-01-30T20:17:32;2.70;99.90
32728;DHT22;55292;51.844;19.246;2024-01-30T20:23:08;2.60;99.90
32728;DHT22;55292;51.844;19.246;2024-01-30T20:28:34;2.60;99.90
32728;DHT22;55292;51.844;19.246;2024-01-30T20:33:54;2.60;99.90
32728;DHT22;55292;51.844;19.246;2024-01-30T20:39:08;2.60;99.90
32728;DHT22;55292;51.844;19.246;2024-01-30T20:44:39;2.60;99.90
32728;DHT22;55292;51.844;19.246;2024-01-30T20:50:14;2.40;99.90
32728;DHT22;55292;51.844;19.246;2024-01-30T20:55:40;2.40;99.90
32728;DHT22;55292;51.844;19.246;2024-01-30T21:00:59;2.40;99.90
32728;DHT22;55292;51.844;19.246;2024-01-30T21:06:10;2.50;99.90
32728;DHT22;55292;51.844;19.246;2024-01-30T21:11:32;2.40;99.90
32728;DHT22;55292;51.844;19.246;2024-01-30T21:17:03;2.40;99.90
32728;DHT22;55292;51.844;19.246;2024-01-30T21:22:52;2.40;99.90
32728;DHT22;55292;51.844;19.246;2024-01-30T21:28:20;2.40;99.90
32728;DHT22;55292;51.844;19.246;2024-01-30T21:34:09;2.50;99.90
32728;DHT22;55292;51.844;19.246;2024-01-30T21:39:31;2.50;99.90
32728;DHT22;55292;51.844;19.246;2024-01-30T21:44:52;2.30;99.90
32728;DHT22;55292;51.844;19.246;2024-01-30T21:50:18;2.40;99.90
32728;DHT22;55292;51.844;19.246;2024-01-30T21:56:06;2.30;99.90
32728;DHT22;55292;51.844;19.246;2024-01-30T22:06:47;2.20;99.90
32728;DHT22;55292;51.844;19.246;2024-01-30T22:12:18;2.10;99.90
32728;DHT22;55292;51.844;19.246;2024-01-30T22:17:48;2.10;99.90
32728;DHT22;55292;51.844;19.246;2024-01-30T22:23:26;2.00;99.90
32728;DHT22;55292;51.844;19.246;2024-01-30T22:28:39;1.90;99.90
32728;DHT22;55292;51.844;19.246;2024-01-30T22:34:07;1.90;99.90
32728;DHT22;55292;51.844;19.246;2024-01-30T22:39:46;1.90;99.90
32728;DHT22;55292;51.844;19.246;2024-01-30T22:45:13;1.90;99.90
32728;DHT22;55292;51.844;19.246;2024-01-30T22:50:34;1.80;99.90
32728;DHT22;55292;51.844;19.246;2024-01-30T22:56:11;1.80;99.90
32728;DHT22;55292;51.844;19.246;2024-01-30T23:01:59;1.80;99.90
32728;DHT22;55292;51.844;19.246;2024-01-30T23:07:25;1.80;99.90
32728;DHT22;55292;51.844;19.246;2024-01-30T23:12:52;1.90;99.90
32728;DHT22;55292;51.844;19.246;2024-01-30T23:18:32;2.00;99.90
32728;DHT22;55292;51.844;19.246;2024-01-30T23:24:09;2.00;99.90
32728;DHT22;55292;51.844;19.246;2024-01-30T23:29:24;1.90;99.90
32728;DHT22;55292;51.844;19.246;2024-01-30T23:34:44;1.90;99.90
32728;DHT22;55292;51.844;19.246;2024-01-30T23:40:01;1.90;99.90
32728;DHT22;55292;51.844;19.246;2024-01-30T23:45:25;1.90;99.90
32728;DHT22;55292;51.844;19.246;2024-01-30T23:50:50;1.90;99.90
32728;DHT22;55292;51.844;19.246;2024-01-30T23:56:15;1.90;99.90
